createdAt,value
2022-12-20T00:03:39.983Z,99557.25
2022-12-20T00:07:43.711Z,99573.88
2022-12-20T00:11:47.530Z,99556.34
2022-12-20T00:15:51.528Z,99561.09
2022-12-20T00:19:57.198Z,99546.00
2022-12-20T00:24:00.973Z,99543.03
2022-12-20T00:28:04.786Z,99545.50
2022-12-20T00:32:08.815Z,99544.84
2022-12-20T00:36:15.439Z,99544.31
2022-12-20T00:40:19.368Z,99553.28
2022-12-20T00:44:23.079Z,99539.38
2022-12-20T00:48:26.969Z,99520.59
2022-12-20T00:52:32.156Z,99522.50
2022-12-20T00:56:38.656Z,99521.78
2022-12-20T01:00:44.040Z,99496.31
2022-12-20T01:04:48.079Z,99462.44
2022-12-20T01:08:53.673Z,99512.38
2022-12-20T01:12:57.555Z,99514.09
2022-12-20T01:17:01.557Z,99506.63
2022-12-20T01:21:10.043Z,99515.06
2022-12-20T01:25:21.770Z,99498.31
2022-12-20T01:29:25.728Z,99486.28
2022-12-20T01:33:32.078Z,99490.97
2022-12-20T01:37:36.222Z,99492.69
2022-12-20T01:41:43.530Z,99491.31
2022-12-20T01:45:48.427Z,99468.22
2022-12-20T01:49:54.970Z,99472.25
2022-12-20T01:54:01.341Z,99479.09
2022-12-20T01:58:08.917Z,99477.84
2022-12-20T02:02:14.720Z,99482.91
2022-12-20T02:06:20.615Z,99482.56
2022-12-20T02:10:26.709Z,99492.34
2022-12-20T02:14:52.051Z,99474.50
2022-12-20T02:19:01.705Z,99436.41
2022-12-20T02:23:32.917Z,99472.88
2022-12-20T02:27:55.352Z,99481.41
2022-12-20T02:32:04.807Z,99477.13
2022-12-20T02:36:08.895Z,99467.84
2022-12-20T02:40:13.139Z,99464.38
2022-12-20T02:44:36.649Z,99457.38
2022-12-20T02:48:44.571Z,99446.38
2022-12-20T02:52:55.043Z,99446.97
2022-12-20T02:57:12.640Z,99447.44
2022-12-20T03:01:19.880Z,99438.38
2022-12-20T03:05:27.649Z,99373.41
2022-12-20T03:09:34.056Z,99414.41
2022-12-20T03:18:07.434Z,99423.84
2022-12-20T03:22:14.124Z,99420.69
2022-12-20T03:26:21.356Z,99414.25
2022-12-20T03:30:26.264Z,99410.84
2022-12-20T03:34:30.765Z,99412.00
2022-12-20T03:38:36.689Z,99412.25
2022-12-20T03:42:49.467Z,99424.75
2022-12-20T03:47:05.295Z,99414.78
2022-12-20T03:51:22.325Z,99425.00
2022-12-20T03:55:27.260Z,99427.56
2022-12-20T03:59:37.619Z,99439.97
2022-12-20T04:03:41.618Z,99436.81
2022-12-20T04:07:48.832Z,99412.38
2022-12-20T04:12:08.030Z,99421.00
2022-12-20T04:16:24.021Z,99419.28
2022-12-20T04:20:31.089Z,99415.66
2022-12-20T04:24:39.505Z,99401.19
2022-12-20T04:28:48.885Z,99404.03
2022-12-20T04:32:58.692Z,99402.25
2022-12-20T04:37:05.521Z,99383.66
2022-12-20T04:41:30.277Z,99389.91
2022-12-20T04:45:39.331Z,99398.97
2022-12-20T04:49:46.837Z,99326.97
2022-12-20T04:54:01.099Z,99388.78
2022-12-20T04:58:11.732Z,99385.72
2022-12-20T05:02:21.286Z,99379.34
2022-12-20T05:06:26.327Z,99395.31
2022-12-20T05:10:34.941Z,99378.97
2022-12-20T05:14:42.180Z,99390.00
2022-12-20T05:18:49.663Z,99386.03
2022-12-20T05:23:11.902Z,99357.44
2022-12-20T05:27:42.053Z,99405.84
2022-12-20T05:31:50.450Z,99386.00
2022-12-20T05:35:57.418Z,99342.47
2022-12-20T05:40:05.751Z,99372.50
2022-12-20T05:44:10.335Z,99334.03
2022-12-20T05:48:18.020Z,99377.25
2022-12-20T05:52:24.179Z,99352.38
2022-12-20T05:56:31.263Z,99354.44
2022-12-20T06:00:36.934Z,99369.66
2022-12-20T06:05:01.423Z,99355.97
2022-12-20T06:09:12.536Z,99367.81
2022-12-20T06:13:27.158Z,99353.72
2022-12-20T06:17:34.177Z,99363.84
2022-12-20T06:22:06.151Z,99355.66
2022-12-20T06:26:11.474Z,99350.84
2022-12-20T06:30:20.781Z,99348.44
2022-12-20T06:34:33.688Z,99341.72
2022-12-20T06:38:41.450Z,99348.06
2022-12-20T06:42:53.677Z,99327.31
2022-12-20T06:46:57.633Z,99335.47
2022-12-20T06:51:06.505Z,99344.28
2022-12-20T06:55:11.446Z,99316.72
2022-12-20T06:59:17.309Z,99345.09
2022-12-20T07:03:22.468Z,99333.66
2022-12-20T07:07:26.480Z,99330.09
2022-12-20T07:11:33.836Z,99332.91
2022-12-20T07:15:40.789Z,99293.91
2022-12-20T07:19:51.959Z,99315.31
2022-12-20T07:24:22.640Z,99312.03
2022-12-20T07:28:29.659Z,99318.25
2022-12-20T07:32:53.941Z,99317.06
2022-12-20T07:37:07.741Z,99320.47
2022-12-20T07:41:17.720Z,99317.44
2022-12-20T07:45:25.451Z,99315.66
2022-12-20T07:49:36.453Z,99315.50
2022-12-20T07:53:46.985Z,99305.88
2022-12-20T07:58:02.383Z,99310.94
2022-12-20T08:02:12.571Z,99311.13
2022-12-20T08:06:26.670Z,99299.50
2022-12-20T08:10:32.436Z,99306.34
2022-12-20T08:14:46.312Z,99271.56
2022-12-20T08:19:06.382Z,99310.22
2022-12-20T08:23:13.589Z,99317.63
2022-12-20T08:27:25.223Z,99311.84
2022-12-20T08:31:30.983Z,99317.28
2022-12-20T08:35:47.647Z,99319.13
2022-12-20T08:40:06.163Z,99288.56
2022-12-20T08:44:12.118Z,99303.88
2022-12-20T08:48:17.109Z,99279.75
2022-12-20T08:52:28.322Z,99293.09
2022-12-20T08:56:41.858Z,99294.66
2022-12-20T09:00:55.850Z,99292.25
2022-12-20T09:05:07.262Z,99271.53
2022-12-20T09:09:12.308Z,99298.13
2022-12-20T09:13:23.566Z,99248.03
2022-12-20T09:17:32.704Z,99292.31
2022-12-20T09:21:39.832Z,99281.81
2022-12-20T09:25:46.528Z,99298.56
2022-12-20T09:29:57.599Z,99291.69
2022-12-20T09:34:03.838Z,99288.50
2022-12-20T09:38:15.906Z,99307.41
2022-12-20T09:42:28.657Z,99315.47
2022-12-20T09:46:44.639Z,99299.34
2022-12-20T09:50:57.028Z,99309.81
2022-12-20T09:55:11.131Z,99297.75
2022-12-20T09:59:24.997Z,99294.69
2022-12-20T10:03:36.675Z,99289.44
2022-12-20T10:07:56.120Z,99260.66
2022-12-20T10:12:07.920Z,99274.88
2022-12-20T10:16:26.803Z,99263.91
2022-12-20T10:20:56.376Z,99253.59
2022-12-20T10:25:17.744Z,99260.78
2022-12-20T10:29:25.305Z,99254.72
2022-12-20T10:33:29.992Z,99251.22
2022-12-20T10:37:35.024Z,99241.91
2022-12-20T10:41:52.175Z,99235.94
2022-12-20T10:46:01.524Z,99227.91
2022-12-20T10:50:29.107Z,99222.03
2022-12-20T10:54:41.462Z,99208.78
2022-12-20T10:58:58.891Z,99202.16
2022-12-20T11:03:16.264Z,99206.75
2022-12-20T11:07:27.228Z,99206.41
2022-12-20T11:11:38.706Z,99199.75
2022-12-20T11:15:50.652Z,99201.94
2022-12-20T11:20:03.471Z,99178.50
2022-12-20T11:24:13.568Z,99187.53
2022-12-20T11:28:27.576Z,99181.88
2022-12-20T11:32:49.060Z,99179.97
2022-12-20T11:37:05.135Z,99165.56
2022-12-20T11:41:23.157Z,99157.78
2022-12-20T11:45:29.574Z,99145.44
2022-12-20T11:50:11.645Z,99131.38
2022-12-20T11:54:23.575Z,99113.53
2022-12-20T11:58:29.644Z,99115.38
2022-12-20T12:02:40.133Z,99097.09
2022-12-20T12:06:47.037Z,99082.75
2022-12-20T12:11:06.284Z,99066.06
2022-12-20T12:15:22.349Z,99072.44
2022-12-20T12:19:33.093Z,99058.03
2022-12-20T12:23:43.487Z,99090.91
2022-12-20T12:27:47.370Z,99102.59
2022-12-20T12:31:51.649Z,99125.22
2022-12-20T12:36:13.466Z,99113.50
2022-12-20T12:40:52.006Z,99106.66
2022-12-20T12:44:58.217Z,99070.06
2022-12-20T12:49:04.387Z,99076.94
2022-12-20T12:53:11.338Z,99085.38
2022-12-20T12:57:16.344Z,99063.13
2022-12-20T13:01:53.896Z,99066.81
2022-12-20T13:05:57.538Z,99039.13
2022-12-20T13:10:03.549Z,99067.59
2022-12-20T13:14:50.139Z,99057.59
2022-12-20T13:19:22.016Z,99059.94
2022-12-20T13:23:25.106Z,99056.53
2022-12-20T13:27:37.477Z,99035.53
2022-12-20T13:31:44.759Z,99053.94
2022-12-20T13:36:03.745Z,99061.59
2022-12-20T13:40:20.340Z,99043.47
2022-12-20T13:44:37.382Z,99044.66
2022-12-20T13:48:49.271Z,99023.50
2022-12-20T13:52:55.936Z,99010.03
2022-12-20T13:57:07.343Z,99036.28
2022-12-20T14:01:15.139Z,99043.16
2022-12-20T14:05:22.305Z,99032.50
2022-12-20T14:09:37.420Z,99027.81
2022-12-20T14:13:43.861Z,99034.44
2022-12-20T14:17:49.672Z,99026.13
2022-12-20T14:21:55.073Z,99034.25
2022-12-20T14:26:06.601Z,99041.13
2022-12-20T14:30:37.836Z,99030.25
2022-12-20T14:34:45.176Z,99008.34
2022-12-20T14:38:50.240Z,99020.91
2022-12-20T14:42:55.418Z,99014.06
2022-12-20T14:47:02.969Z,99004.00
2022-12-20T14:51:15.285Z,99001.84
2022-12-20T14:55:28.729Z,99001.00
2022-12-20T14:59:33.982Z,98994.72
2022-12-20T15:03:39.898Z,98993.59
2022-12-20T15:07:48.669Z,98990.25
2022-12-20T15:11:53.327Z,98986.59
2022-12-20T15:16:15.604Z,98989.22
2022-12-20T15:20:40.816Z,98993.66
2022-12-20T15:24:46.833Z,99006.19
2022-12-20T15:28:51.588Z,98997.50
2022-12-20T15:33:01.640Z,98994.91
2022-12-20T15:37:06.778Z,98975.50
2022-12-20T15:41:16.452Z,99006.84
2022-12-20T15:45:32.663Z,99019.28
2022-12-20T15:49:35.928Z,98990.75
2022-12-20T15:53:39.381Z,98970.66
2022-12-20T15:57:47.473Z,98989.19
2022-12-20T16:01:51.117Z,98986.41
2022-12-20T16:05:56.833Z,98985.75
2022-12-20T16:10:01.476Z,99004.31
2022-12-20T16:14:16.293Z,99000.31
2022-12-20T16:18:24.164Z,98999.16
2022-12-20T16:22:28.777Z,98991.06
2022-12-20T16:26:34.569Z,99001.94
2022-12-20T16:30:47.910Z,98983.81
2022-12-20T16:35:11.785Z,98982.22
2022-12-20T16:39:30.283Z,98975.84
2022-12-20T16:43:44.269Z,98979.25
2022-12-20T16:48:10.390Z,98973.09
2022-12-20T16:52:24.147Z,98971.72
2022-12-20T16:56:50.023Z,98969.22
2022-12-20T17:00:57.542Z,98969.16
2022-12-20T17:05:13.248Z,98976.56
2022-12-20T17:14:08.784Z,98970.84
2022-12-20T17:18:22.114Z,98983.16
2022-12-20T17:22:29.017Z,98981.69
2022-12-20T17:26:39.868Z,98993.91
2022-12-20T17:31:01.024Z,98992.09
2022-12-20T17:35:09.118Z,98975.19
2022-12-20T17:39:13.647Z,98989.09
2022-12-20T17:43:16.563Z,98919.44
2022-12-20T17:47:19.301Z,98942.44
2022-12-20T17:51:26.791Z,98965.59
2022-12-20T17:55:32.292Z,98933.41
2022-12-20T17:59:37.250Z,98959.03
2022-12-20T18:04:03.021Z,98970.19
2022-12-20T18:08:07.336Z,98963.78
2022-12-20T18:12:12.044Z,98937.06
2022-12-20T18:16:16.483Z,98973.16
2022-12-20T18:20:20.624Z,98976.81
2022-12-20T18:24:24.117Z,98986.28
2022-12-20T18:28:40.572Z,98985.25
2022-12-20T18:32:53.235Z,98990.94
2022-12-20T18:36:57.183Z,98939.47
2022-12-20T18:41:02.241Z,98988.84
2022-12-20T18:45:19.221Z,98991.66
2022-12-20T18:49:23.026Z,98988.47
2022-12-20T18:53:30.665Z,98976.44
2022-12-20T18:57:51.050Z,98996.91
2022-12-20T19:01:56.884Z,98999.63
2022-12-20T19:06:05.133Z,98985.97
2022-12-20T19:10:16.831Z,98992.41
2022-12-20T19:14:21.146Z,98987.31
2022-12-20T19:18:27.148Z,98971.84
2022-12-20T19:22:34.890Z,98978.56
2022-12-20T19:26:52.644Z,98974.59
2022-12-20T19:30:57.603Z,98972.50
2022-12-20T19:35:37.469Z,98971.22
2022-12-20T19:39:42.769Z,98960.34
2022-12-20T19:43:53.652Z,98961.19
2022-12-20T19:47:57.838Z,98954.75
2022-12-20T19:52:09.455Z,98944.38
2022-12-20T19:56:28.113Z,98952.91
2022-12-20T20:01:06.731Z,98955.25
2022-12-20T20:05:18.189Z,98928.59
2022-12-20T20:09:25.874Z,98926.31
2022-12-20T20:13:36.538Z,98933.47
2022-12-20T20:17:45.430Z,98927.31
2022-12-20T20:22:31.164Z,98930.50
2022-12-20T20:26:37.127Z,98927.44
2022-12-20T20:30:50.338Z,98933.88
2022-12-20T20:35:00.478Z,98936.84
2022-12-20T20:39:37.093Z,98928.94
2022-12-20T20:43:50.182Z,98924.72
2022-12-20T20:48:12.801Z,98918.56
2022-12-20T20:52:28.315Z,98924.88
2022-12-20T20:56:41.882Z,98915.59
2022-12-20T21:00:52.541Z,98914.31
2022-12-20T21:06:06.302Z,98919.41
2022-12-20T21:09:41.704Z,98913.41
2022-12-20T21:13:52.845Z,98909.53
2022-12-20T21:18:02.797Z,98906.84
2022-12-20T21:22:08.056Z,98899.91
2022-12-20T21:26:20.139Z,98904.56
2022-12-20T21:30:24.634Z,98908.31
2022-12-20T21:34:41.755Z,98888.56
2022-12-20T21:38:58.505Z,98896.72
2022-12-20T21:43:21.268Z,98895.13
2022-12-20T21:47:27.069Z,98885.19
2022-12-20T21:51:50.632Z,98893.03
2022-12-20T21:56:01.185Z,98895.00
2022-12-20T22:00:28.419Z,98897.41
2022-12-20T22:09:09.544Z,98882.75
2022-12-20T22:13:20.058Z,98887.97
2022-12-20T22:17:28.821Z,98899.81
2022-12-20T22:21:34.737Z,98853.72
2022-12-20T22:25:55.769Z,98891.41
2022-12-20T22:29:59.797Z,98890.31
2022-12-20T22:34:07.078Z,98878.66
2022-12-20T22:38:19.763Z,98891.06
2022-12-20T22:42:31.886Z,98879.75
2022-12-20T22:46:51.588Z,98890.63
2022-12-20T22:51:04.942Z,98884.66
2022-12-20T22:55:33.429Z,98892.56
2022-12-20T22:59:45.894Z,98884.16
2022-12-20T23:03:51.048Z,98885.75
2022-12-20T23:08:13.774Z,98857.78
2022-12-20T23:12:42.508Z,98886.03
2022-12-20T23:16:51.974Z,98885.81
2022-12-20T23:21:19.552Z,98887.59
2022-12-20T23:25:24.126Z,98891.88
2022-12-20T23:29:27.090Z,98866.41
2022-12-20T23:33:49.020Z,98882.66
2022-12-20T23:37:56.659Z,98869.34
2022-12-20T23:42:05.305Z,98885.53
2022-12-20T23:46:13.514Z,98841.25
2022-12-20T23:50:18.170Z,98871.72
2022-12-20T23:54:21.664Z,98875.25
2022-12-20T23:58:25.176Z,98840.00
